sensor_id;sensor_type;location;lat;lon;timestamp;P1;durP1;ratioP1;P2;durP2;ratioP2
39792;SDS011;26080;42.264;24.536;2022-11-11T00:02:19;18.58;;;7.03;;
39792;SDS011;26080;42.264;24.536;2022-11-11T00:04:44;11.88;;;7.82;;
39792;SDS011;26080;42.264;24.536;2022-11-11T00:07:10;9.88;;;7.10;;
39792;SDS011;26080;42.264;24.536;2022-11-11T00:09:35;10.38;;;7.38;;
39792;SDS011;26080;42.264;24.536;2022-11-11T00:12:01;16.95;;;9.93;;
39792;SDS011;26080;42.264;24.536;2022-11-11T00:14:26;8.95;;;7.60;;
39792;SDS011;26080;42.264;24.536;2022-11-11T00:16:52;15.32;;;8.30;;
39792;SDS011;26080;42.264;24.536;2022-11-11T00:19:36;11.80;;;8.77;;
39792;SDS011;26080;42.264;24.536;2022-11-11T00:22:20;11.35;;;7.75;;
39792;SDS011;26080;42.264;24.536;2022-11-11T00:25:05;13.00;;;7.95;;
39792;SDS011;26080;42.264;24.536;2022-11-11T00:27:30;16.75;;;9.18;;
39792;SDS011;26080;42.264;24.536;2022-11-11T00:29:56;10.18;;;7.75;;
39792;SDS011;26080;42.264;24.536;2022-11-11T00:32:22;11.80;;;6.55;;
39792;SDS011;26080;42.264;24.536;2022-11-11T00:34:47;14.25;;;9.25;;
39792;SDS011;26080;42.264;24.536;2022-11-11T00:37:35;12.10;;;8.60;;
39792;SDS011;26080;42.264;24.536;2022-11-11T00:40:01;11.85;;;6.38;;
39792;SDS011;26080;42.264;24.536;2022-11-11T00:42:27;14.98;;;9.27;;
39792;SDS011;26080;42.264;24.536;2022-11-11T00:44:52;10.02;;;8.27;;
39792;SDS011;26080;42.264;24.536;2022-11-11T00:47:18;11.63;;;9.35;;
39792;SDS011;26080;42.264;24.536;2022-11-11T00:50:03;22.05;;;8.23;;
39792;SDS011;26080;42.264;24.536;2022-11-11T00:52:49;11.73;;;6.82;;
39792;SDS011;26080;42.264;24.536;2022-11-11T00:55:14;10.55;;;7.90;;
39792;SDS011;26080;42.264;24.536;2022-11-11T00:57:40;13.82;;;9.13;;
39792;SDS011;26080;42.264;24.536;2022-11-11T01:00:06;8.02;;;5.57;;
39792;SDS011;26080;42.264;24.536;2022-11-11T01:02:32;11.88;;;7.22;;
39792;SDS011;26080;42.264;24.536;2022-11-11T01:04:57;5.85;;;4.63;;
39792;SDS011;26080;42.264;24.536;2022-11-11T01:07:23;8.77;;;7.60;;
39792;SDS011;26080;42.264;24.536;2022-11-11T01:09:49;4.88;;;4.43;;
39792;SDS011;26080;42.264;24.536;2022-11-11T01:12:14;12.68;;;7.43;;
39792;SDS011;26080;42.264;24.536;2022-11-11T01:14:40;16.13;;;6.63;;
39792;SDS011;26080;42.264;24.536;2022-11-11T01:17:05;9.90;;;5.90;;
39792;SDS011;26080;42.264;24.536;2022-11-11T01:19:31;14.50;;;7.68;;
39792;SDS011;26080;42.264;24.536;2022-11-11T01:21:57;14.80;;;6.60;;
39792;SDS011;26080;42.264;24.536;2022-11-11T01:24:23;17.23;;;9.88;;
39792;SDS011;26080;42.264;24.536;2022-11-11T01:26:48;9.70;;;8.73;;
39792;SDS011;26080;42.264;24.536;2022-11-11T01:29:14;10.32;;;6.65;;
39792;SDS011;26080;42.264;24.536;2022-11-11T01:31:41;16.52;;;8.98;;
39792;SDS011;26080;42.264;24.536;2022-11-11T01:34:06;13.10;;;8.02;;
39792;SDS011;26080;42.264;24.536;2022-11-11T01:36:32;11.80;;;7.20;;
39792;SDS011;26080;42.264;24.536;2022-11-11T01:38:58;10.27;;;6.60;;
39792;SDS011;26080;42.264;24.536;2022-11-11T01:41:32;17.25;;;6.63;;
39792;SDS011;26080;42.264;24.536;2022-11-11T01:46:39;6.53;;;5.35;;
39792;SDS011;26080;42.264;24.536;2022-11-11T01:49:14;7.47;;;6.65;;
39792;SDS011;26080;42.264;24.536;2022-11-11T01:51:54;6.28;;;5.18;;
39792;SDS011;26080;42.264;24.536;2022-11-11T02:00:22;10.20;;;7.20;;
39792;SDS011;26080;42.264;24.536;2022-11-11T02:02:49;6.03;;;4.95;;
39792;SDS011;26080;42.264;24.536;2022-11-11T02:05:20;16.23;;;9.80;;
39792;SDS011;26080;42.264;24.536;2022-11-11T02:08:14;8.25;;;6.90;;
39792;SDS011;26080;42.264;24.536;2022-11-11T02:10:56;6.07;;;5.57;;
39792;SDS011;26080;42.264;24.536;2022-11-11T02:13:24;11.57;;;7.63;;
39792;SDS011;26080;42.264;24.536;2022-11-11T02:16:09;6.80;;;6.05;;
39792;SDS011;26080;42.264;24.536;2022-11-11T02:18:34;13.90;;;7.57;;
39792;SDS011;26080;42.264;24.536;2022-11-11T02:21:00;9.90;;;7.57;;
39792;SDS011;26080;42.264;24.536;2022-11-11T02:25:57;6.03;;;5.47;;
39792;SDS011;26080;42.264;24.536;2022-11-11T02:28:26;9.77;;;5.55;;
39792;SDS011;26080;42.264;24.536;2022-11-11T02:30:52;9.20;;;6.20;;
39792;SDS011;26080;42.264;24.536;2022-11-11T02:33:20;9.75;;;7.28;;
39792;SDS011;26080;42.264;24.536;2022-11-11T02:35:47;6.82;;;5.95;;
39792;SDS011;26080;42.264;24.536;2022-11-11T02:38:23;6.32;;;4.60;;
39792;SDS011;26080;42.264;24.536;2022-11-11T02:40:49;7.60;;;6.88;;
39792;SDS011;26080;42.264;24.536;2022-11-11T02:43:34;10.95;;;7.75;;
39792;SDS011;26080;42.264;24.536;2022-11-11T02:46:00;7.88;;;5.80;;
39792;SDS011;26080;42.264;24.536;2022-11-11T02:48:28;8.20;;;7.32;;
39792;SDS011;26080;42.264;24.536;2022-11-11T02:50:53;7.57;;;4.97;;
39792;SDS011;26080;42.264;24.536;2022-11-11T02:53:19;22.33;;;8.02;;
39792;SDS011;26080;42.264;24.536;2022-11-11T02:55:46;8.23;;;7.38;;
39792;SDS011;26080;42.264;24.536;2022-11-11T02:58:11;13.85;;;9.20;;
39792;SDS011;26080;42.264;24.536;2022-11-11T03:00:37;11.77;;;7.35;;
39792;SDS011;26080;42.264;24.536;2022-11-11T03:03:03;16.85;;;8.40;;
39792;SDS011;26080;42.264;24.536;2022-11-11T03:05:28;8.02;;;6.53;;
39792;SDS011;26080;42.264;24.536;2022-11-11T03:07:54;9.63;;;6.30;;
39792;SDS011;26080;42.264;24.536;2022-11-11T03:10:19;5.70;;;5.13;;
39792;SDS011;26080;42.264;24.536;2022-11-11T03:12:45;7.55;;;6.80;;
39792;SDS011;26080;42.264;24.536;2022-11-11T03:15:10;7.93;;;7.05;;
39792;SDS011;26080;42.264;24.536;2022-11-11T03:17:36;10.50;;;5.15;;
39792;SDS011;26080;42.264;24.536;2022-11-11T03:20:14;8.55;;;5.60;;
39792;SDS011;26080;42.264;24.536;2022-11-11T03:25:28;12.05;;;7.82;;
39792;SDS011;26080;42.264;24.536;2022-11-11T03:28:04;4.75;;;4.18;;
39792;SDS011;26080;42.264;24.536;2022-11-11T03:30:50;23.65;;;7.40;;
39792;SDS011;26080;42.264;24.536;2022-11-11T03:33:16;8.65;;;6.28;;
39792;SDS011;26080;42.264;24.536;2022-11-11T03:35:43;5.43;;;4.80;;
39792;SDS011;26080;42.264;24.536;2022-11-11T03:38:11;12.55;;;6.20;;
39792;SDS011;26080;42.264;24.536;2022-11-11T03:40:44;13.75;;;8.70;;
39792;SDS011;26080;42.264;24.536;2022-11-11T03:43:11;6.25;;;5.65;;
39792;SDS011;26080;42.264;24.536;2022-11-11T03:45:37;8.43;;;6.68;;
39792;SDS011;26080;42.264;24.536;2022-11-11T03:48:03;13.00;;;5.72;;
39792;SDS011;26080;42.264;24.536;2022-11-11T03:50:29;20.52;;;8.57;;
39792;SDS011;26080;42.264;24.536;2022-11-11T03:52:55;37.25;;;8.30;;
39792;SDS011;26080;42.264;24.536;2022-11-11T03:55:21;6.68;;;5.22;;
39792;SDS011;26080;42.264;24.536;2022-11-11T03:57:46;10.68;;;6.47;;
39792;SDS011;26080;42.264;24.536;2022-11-11T04:00:12;26.35;;;9.93;;
39792;SDS011;26080;42.264;24.536;2022-11-11T04:02:39;9.73;;;7.75;;
39792;SDS011;26080;42.264;24.536;2022-11-11T04:05:23;9.35;;;7.32;;
39792;SDS011;26080;42.264;24.536;2022-11-11T04:08:11;7.55;;;6.35;;
39792;SDS011;26080;42.264;24.536;2022-11-11T04:11:00;12.55;;;8.65;;
39792;SDS011;26080;42.264;24.536;2022-11-11T04:13:29;11.38;;;6.93;;
39792;SDS011;26080;42.264;24.536;2022-11-11T04:16:14;11.68;;;7.50;;
39792;SDS011;26080;42.264;24.536;2022-11-11T04:18:40;12.90;;;6.80;;
39792;SDS011;26080;42.264;24.536;2022-11-11T04:21:24;9.57;;;5.78;;
39792;SDS011;26080;42.264;24.536;2022-11-11T04:24:26;11.40;;;6.05;;
39792;SDS011;26080;42.264;24.536;2022-11-11T04:27:14;10.23;;;7.05;;
39792;SDS011;26080;42.264;24.536;2022-11-11T04:29:41;11.43;;;8.20;;
39792;SDS011;26080;42.264;24.536;2022-11-11T04:32:11;11.13;;;7.78;;
39792;SDS011;26080;42.264;24.536;2022-11-11T04:34:58;7.65;;;6.40;;
39792;SDS011;26080;42.264;24.536;2022-11-11T04:37:32;31.33;;;8.48;;
39792;SDS011;26080;42.264;24.536;2022-11-11T04:40:08;15.30;;;6.82;;
39792;SDS011;26080;42.264;24.536;2022-11-11T04:42:52;7.43;;;5.88;;
39792;SDS011;26080;42.264;24.536;2022-11-11T04:45:18;10.50;;;6.93;;
39792;SDS011;26080;42.264;24.536;2022-11-11T04:47:59;15.30;;;5.18;;
39792;SDS011;26080;42.264;24.536;2022-11-11T04:50:27;14.80;;;6.13;;
39792;SDS011;26080;42.264;24.536;2022-11-11T04:52:53;10.90;;;6.80;;
39792;SDS011;26080;42.264;24.536;2022-11-11T04:55:19;8.10;;;6.68;;
39792;SDS011;26080;42.264;24.536;2022-11-11T04:58:03;10.15;;;8.48;;
39792;SDS011;26080;42.264;24.536;2022-11-11T05:00:29;11.15;;;7.47;;
39792;SDS011;26080;42.264;24.536;2022-11-11T05:02:55;7.22;;;6.53;;
39792;SDS011;26080;42.264;24.536;2022-11-11T05:05:40;9.20;;;6.70;;
39792;SDS011;26080;42.264;24.536;2022-11-11T05:08:39;10.35;;;6.28;;
39792;SDS011;26080;42.264;24.536;2022-11-11T05:11:22;8.18;;;5.70;;
39792;SDS011;26080;42.264;24.536;2022-11-11T05:13:55;7.30;;;6.60;;
39792;SDS011;26080;42.264;24.536;2022-11-11T05:16:42;10.57;;;5.47;;
39792;SDS011;26080;42.264;24.536;2022-11-11T05:19:33;11.95;;;7.72;;
39792;SDS011;26080;42.264;24.536;2022-11-11T05:22:21;12.93;;;6.45;;
39792;SDS011;26080;42.264;24.536;2022-11-11T05:24:49;15.82;;;7.05;;
39792;SDS011;26080;42.264;24.536;2022-11-11T05:27:33;7.50;;;6.28;;
39792;SDS011;26080;42.264;24.536;2022-11-11T05:29:59;11.43;;;7.00;;
39792;SDS011;26080;42.264;24.536;2022-11-11T05:32:25;9.18;;;6.65;;
39792;SDS011;26080;42.264;24.536;2022-11-11T05:34:50;9.77;;;7.78;;
39792;SDS011;26080;42.264;24.536;2022-11-11T05:37:16;19.83;;;11.27;;
39792;SDS011;26080;42.264;24.536;2022-11-11T05:39:43;15.52;;;10.52;;
39792;SDS011;26080;42.264;24.536;2022-11-11T05:42:09;15.98;;;11.88;;
39792;SDS011;26080;42.264;24.536;2022-11-11T05:44:34;10.07;;;6.88;;
39792;SDS011;26080;42.264;24.536;2022-11-11T05:47:00;23.40;;;12.75;;
39792;SDS011;26080;42.264;24.536;2022-11-11T05:49:26;10.75;;;6.53;;
39792;SDS011;26080;42.264;24.536;2022-11-11T05:51:52;18.98;;;9.93;;
39792;SDS011;26080;42.264;24.536;2022-11-11T05:54:19;15.02;;;8.30;;
39792;SDS011;26080;42.264;24.536;2022-11-11T05:56:45;10.50;;;9.02;;
39792;SDS011;26080;42.264;24.536;2022-11-11T05:59:11;9.05;;;5.40;;
39792;SDS011;26080;42.264;24.536;2022-11-11T06:01:36;3.70;;;3.30;;
39792;SDS011;26080;42.264;24.536;2022-11-11T06:04:03;8.43;;;7.68;;
39792;SDS011;26080;42.264;24.536;2022-11-11T06:06:29;23.48;;;6.57;;
39792;SDS011;26080;42.264;24.536;2022-11-11T06:08:55;12.55;;;7.45;;
39792;SDS011;26080;42.264;24.536;2022-11-11T06:11:20;7.22;;;5.38;;
39792;SDS011;26080;42.264;24.536;2022-11-11T06:13:46;11.88;;;6.80;;
39792;SDS011;26080;42.264;24.536;2022-11-11T06:16:12;8.85;;;5.80;;
39792;SDS011;26080;42.264;24.536;2022-11-11T06:18:37;7.47;;;6.15;;
39792;SDS011;26080;42.264;24.536;2022-11-11T06:21:03;11.52;;;7.90;;
39792;SDS011;26080;42.264;24.536;2022-11-11T06:23:29;8.25;;;6.38;;
39792;SDS011;26080;42.264;24.536;2022-11-11T06:25:55;11.10;;;7.05;;
39792;SDS011;26080;42.264;24.536;2022-11-11T06:28:49;17.63;;;8.15;;
39792;SDS011;26080;42.264;24.536;2022-11-11T06:31:17;8.15;;;6.35;;
39792;SDS011;26080;42.264;24.536;2022-11-11T06:33:47;15.40;;;5.35;;
39792;SDS011;26080;42.264;24.536;2022-11-11T06:36:14;7.68;;;5.63;;
39792;SDS011;26080;42.264;24.536;2022-11-11T06:38:41;9.02;;;5.18;;
39792;SDS011;26080;42.264;24.536;2022-11-11T06:41:07;6.05;;;5.30;;
39792;SDS011;26080;42.264;24.536;2022-11-11T06:43:36;10.25;;;7.95;;
39792;SDS011;26080;42.264;24.536;2022-11-11T06:46:05;13.48;;;7.22;;
39792;SDS011;26080;42.264;24.536;2022-11-11T06:48:31;10.52;;;4.55;;
39792;SDS011;26080;42.264;24.536;2022-11-11T06:51:04;5.70;;;4.13;;
39792;SDS011;26080;42.264;24.536;2022-11-11T06:53:30;9.40;;;6.07;;
39792;SDS011;26080;42.264;24.536;2022-11-11T06:55:56;10.20;;;7.15;;
39792;SDS011;26080;42.264;24.536;2022-11-11T06:58:22;7.82;;;6.80;;
39792;SDS011;26080;42.264;24.536;2022-11-11T07:00:49;11.77;;;5.25;;
39792;SDS011;26080;42.264;24.536;2022-11-11T07:03:16;5.72;;;4.78;;
39792;SDS011;26080;42.264;24.536;2022-11-11T07:05:43;8.00;;;4.60;;
39792;SDS011;26080;42.264;24.536;2022-11-11T07:08:10;11.23;;;5.70;;
39792;SDS011;26080;42.264;24.536;2022-11-11T07:10:37;7.53;;;6.28;;
39792;SDS011;26080;42.264;24.536;2022-11-11T07:13:05;6.65;;;5.57;;
39792;SDS011;26080;42.264;24.536;2022-11-11T07:15:31;8.25;;;5.68;;
39792;SDS011;26080;42.264;24.536;2022-11-11T07:17:58;8.30;;;5.50;;
39792;SDS011;26080;42.264;24.536;2022-11-11T07:20:23;9.70;;;6.72;;
39792;SDS011;26080;42.264;24.536;2022-11-11T07:22:49;8.25;;;5.93;;
39792;SDS011;26080;42.264;24.536;2022-11-11T07:25:15;9.95;;;6.88;;
39792;SDS011;26080;42.264;24.536;2022-11-11T07:27:41;10.55;;;5.18;;
39792;SDS011;26080;42.264;24.536;2022-11-11T07:30:07;5.82;;;5.05;;
39792;SDS011;26080;42.264;24.536;2022-11-11T07:32:33;7.80;;;4.55;;
39792;SDS011;26080;42.264;24.536;2022-11-11T07:35:00;9.90;;;6.28;;
39792;SDS011;26080;42.264;24.536;2022-11-11T07:37:25;6.68;;;4.65;;
39792;SDS011;26080;42.264;24.536;2022-11-11T07:39:51;6.72;;;5.03;;
39792;SDS011;26080;42.264;24.536;2022-11-11T07:42:17;16.42;;;6.05;;
39792;SDS011;26080;42.264;24.536;2022-11-11T07:44:43;12.38;;;7.63;;
39792;SDS011;26080;42.264;24.536;2022-11-11T07:47:08;16.13;;;8.23;;
39792;SDS011;26080;42.264;24.536;2022-11-11T07:49:34;12.10;;;9.60;;
39792;SDS011;26080;42.264;24.536;2022-11-11T07:51:59;8.40;;;7.00;;
39792;SDS011;26080;42.264;24.536;2022-11-11T07:54:25;6.38;;;5.18;;
39792;SDS011;26080;42.264;24.536;2022-11-11T07:56:50;11.55;;;8.02;;
39792;SDS011;26080;42.264;24.536;2022-11-11T07:59:16;9.52;;;4.85;;
39792;SDS011;26080;42.264;24.536;2022-11-11T08:01:41;9.50;;;5.82;;
39792;SDS011;26080;42.264;24.536;2022-11-11T08:04:07;9.48;;;6.68;;
39792;SDS011;26080;42.264;24.536;2022-11-11T08:06:32;6.55;;;5.90;;
39792;SDS011;26080;42.264;24.536;2022-11-11T08:08:57;15.07;;;5.57;;
39792;SDS011;26080;42.264;24.536;2022-11-11T08:11:23;7.97;;;6.03;;
39792;SDS011;26080;42.264;24.536;2022-11-11T08:14:07;7.78;;;6.75;;
39792;SDS011;26080;42.264;24.536;2022-11-11T08:16:32;14.77;;;6.32;;
39792;SDS011;26080;42.264;24.536;2022-11-11T08:18:58;14.32;;;6.35;;
39792;SDS011;26080;42.264;24.536;2022-11-11T08:21:25;9.43;;;5.63;;
39792;SDS011;26080;42.264;24.536;2022-11-11T08:23:50;12.00;;;6.40;;
39792;SDS011;26080;42.264;24.536;2022-11-11T08:26:16;11.02;;;5.20;;
39792;SDS011;26080;42.264;24.536;2022-11-11T08:28:42;13.82;;;7.25;;
39792;SDS011;26080;42.264;24.536;2022-11-11T08:31:08;13.52;;;6.10;;
39792;SDS011;26080;42.264;24.536;2022-11-11T08:33:34;8.60;;;5.82;;
39792;SDS011;26080;42.264;24.536;2022-11-11T08:35:59;9.55;;;4.85;;
39792;SDS011;26080;42.264;24.536;2022-11-11T08:38:26;7.97;;;3.80;;
39792;SDS011;26080;42.264;24.536;2022-11-11T08:40:52;6.03;;;3.80;;
39792;SDS011;26080;42.264;24.536;2022-11-11T08:43:18;5.25;;;3.67;;
39792;SDS011;26080;42.264;24.536;2022-11-11T08:45:44;4.45;;;3.83;;
39792;SDS011;26080;42.264;24.536;2022-11-11T08:48:10;5.88;;;4.15;;
39792;SDS011;26080;42.264;24.536;2022-11-11T08:50:36;3.80;;;3.30;;
39792;SDS011;26080;42.264;24.536;2022-11-11T08:53:05;11.55;;;4.88;;
39792;SDS011;26080;42.264;24.536;2022-11-11T08:55:32;6.13;;;3.85;;
39792;SDS011;26080;42.264;24.536;2022-11-11T08:58:01;4.72;;;3.53;;
39792;SDS011;26080;42.264;24.536;2022-11-11T09:00:29;4.38;;;3.17;;
39792;SDS011;26080;42.264;24.536;2022-11-11T09:03:02;11.82;;;4.38;;
39792;SDS011;26080;42.264;24.536;2022-11-11T09:05:30;4.85;;;3.65;;
39792;SDS011;26080;42.264;24.536;2022-11-11T09:07:59;12.50;;;5.05;;
39792;SDS011;26080;42.264;24.536;2022-11-11T09:10:25;4.53;;;4.10;;
39792;SDS011;26080;42.264;24.536;2022-11-11T09:12:57;4.63;;;3.35;;
39792;SDS011;26080;42.264;24.536;2022-11-11T09:15:23;6.00;;;3.13;;
39792;SDS011;26080;42.264;24.536;2022-11-11T09:17:50;8.30;;;3.67;;
39792;SDS011;26080;42.264;24.536;2022-11-11T09:20:16;2.78;;;2.53;;
39792;SDS011;26080;42.264;24.536;2022-11-11T09:22:43;5.75;;;3.03;;
39792;SDS011;26080;42.264;24.536;2022-11-11T09:25:13;3.35;;;3.00;;
39792;SDS011;26080;42.264;24.536;2022-11-11T09:27:39;5.93;;;4.70;;
39792;SDS011;26080;42.264;24.536;2022-11-11T09:30:06;4.95;;;3.15;;
39792;SDS011;26080;42.264;24.536;2022-11-11T09:32:32;7.35;;;4.50;;
39792;SDS011;26080;42.264;24.536;2022-11-11T09:34:57;12.23;;;5.10;;
39792;SDS011;26080;42.264;24.536;2022-11-11T09:37:24;4.47;;;3.08;;
39792;SDS011;26080;42.264;24.536;2022-11-11T09:39:50;6.38;;;2.95;;
39792;SDS011;26080;42.264;24.536;2022-11-11T09:47:50;3.38;;;2.63;;
39792;SDS011;26080;42.264;24.536;2022-11-11T09:50:20;4.40;;;3.63;;
39792;SDS011;26080;42.264;24.536;2022-11-11T09:52:53;8.40;;;3.53;;
39792;SDS011;26080;42.264;24.536;2022-11-11T09:55:39;4.00;;;3.33;;
39792;SDS011;26080;42.264;24.536;2022-11-11T09:58:16;7.50;;;4.55;;
39792;SDS011;26080;42.264;24.536;2022-11-11T10:00:45;51.17;;;3.92;;
39792;SDS011;26080;42.264;24.536;2022-11-11T10:03:17;7.07;;;4.72;;
39792;SDS011;26080;42.264;24.536;2022-11-11T10:05:54;5.88;;;2.78;;
39792;SDS011;26080;42.264;24.536;2022-11-11T10:11:21;8.48;;;3.63;;
39792;SDS011;26080;42.264;24.536;2022-11-11T10:13:53;3.42;;;2.45;;
39792;SDS011;26080;42.264;24.536;2022-11-11T10:21:15;4.65;;;1.65;;
39792;SDS011;26080;42.264;24.536;2022-11-11T10:24:09;5.72;;;2.47;;
39792;SDS011;26080;42.264;24.536;2022-11-11T10:26:38;1.48;;;1.38;;
39792;SDS011;26080;42.264;24.536;2022-11-11T10:29:19;2.67;;;1.60;;
39792;SDS011;26080;42.264;24.536;2022-11-11T10:31:57;4.55;;;2.63;;
39792;SDS011;26080;42.264;24.536;2022-11-11T10:34:33;6.38;;;4.00;;
39792;SDS011;26080;42.264;24.536;2022-11-11T10:36:59;5.55;;;1.95;;
39792;SDS011;26080;42.264;24.536;2022-11-11T10:39:41;2.40;;;1.70;;
39792;SDS011;26080;42.264;24.536;2022-11-11T10:42:15;5.18;;;1.35;;
39792;SDS011;26080;42.264;24.536;2022-11-11T10:44:42;2.15;;;1.42;;
39792;SDS011;26080;42.264;24.536;2022-11-11T10:50:05;3.17;;;1.55;;
39792;SDS011;26080;42.264;24.536;2022-11-11T10:52:40;2.30;;;1.92;;
39792;SDS011;26080;42.264;24.536;2022-11-11T10:55:24;3.13;;;2.13;;
39792;SDS011;26080;42.264;24.536;2022-11-11T11:01:33;8.15;;;2.95;;
39792;SDS011;26080;42.264;24.536;2022-11-11T11:04:04;3.38;;;2.75;;
39792;SDS011;26080;42.264;24.536;2022-11-11T11:06:37;3.55;;;2.10;;
39792;SDS011;26080;42.264;24.536;2022-11-11T11:09:49;3.13;;;1.90;;
39792;SDS011;26080;42.264;24.536;2022-11-11T11:14:54;3.45;;;2.28;;
39792;SDS011;26080;42.264;24.536;2022-11-11T11:17:48;3.28;;;1.83;;
39792;SDS011;26080;42.264;24.536;2022-11-11T11:20:15;5.10;;;2.58;;
39792;SDS011;26080;42.264;24.536;2022-11-11T11:22:53;3.83;;;2.00;;
39792;SDS011;26080;42.264;24.536;2022-11-11T11:25:23;5.22;;;2.20;;
39792;SDS011;26080;42.264;24.536;2022-11-11T11:27:50;3.05;;;2.28;;
39792;SDS011;26080;42.264;24.536;2022-11-11T11:33:00;7.55;;;2.55;;
39792;SDS011;26080;42.264;24.536;2022-11-11T11:37:55;7.55;;;3.08;;
39792;SDS011;26080;42.264;24.536;2022-11-11T11:40:21;4.85;;;3.78;;
39792;SDS011;26080;42.264;24.536;2022-11-11T11:42:46;8.88;;;3.25;;
39792;SDS011;26080;42.264;24.536;2022-11-11T11:45:25;8.48;;;3.50;;
39792;SDS011;26080;42.264;24.536;2022-11-11T11:53:26;4.70;;;3.40;;
39792;SDS011;26080;42.264;24.536;2022-11-11T12:01:26;3.28;;;1.65;;
39792;SDS011;26080;42.264;24.536;2022-11-11T12:10:05;2.00;;;1.00;;
39792;SDS011;26080;42.264;24.536;2022-11-11T12:18:11;2.85;;;2.53;;
39792;SDS011;26080;42.264;24.536;2022-11-11T12:21:15;3.58;;;2.00;;
39792;SDS011;26080;42.264;24.536;2022-11-11T12:50:40;7.63;;;2.50;;
39792;SDS011;26080;42.264;24.536;2022-11-11T16:17:37;3.17;;;2.28;;
39792;SDS011;26080;42.264;24.536;2022-11-11T16:20:10;2.15;;;1.13;;
39792;SDS011;26080;42.264;24.536;2022-11-11T16:22:39;3.40;;;3.08;;
39792;SDS011;26080;42.264;24.536;2022-11-11T16:25:11;2.88;;;1.60;;
39792;SDS011;26080;42.264;24.536;2022-11-11T16:27:41;1.70;;;1.60;;
39792;SDS011;26080;42.264;24.536;2022-11-11T16:30:17;0.73;;;0.70;;
39792;SDS011;26080;42.264;24.536;2022-11-11T16:32:42;2.97;;;1.50;;
39792;SDS011;26080;42.264;24.536;2022-11-11T16:37:54;9.27;;;2.10;;
39792;SDS011;26080;42.264;24.536;2022-11-11T16:40:25;2.30;;;1.23;;
39792;SDS011;26080;42.264;24.536;2022-11-11T16:45:51;2.42;;;1.73;;
39792;SDS011;26080;42.264;24.536;2022-11-11T16:50:58;2.58;;;1.10;;
39792;SDS011;26080;42.264;24.536;2022-11-11T16:53:28;1.88;;;1.42;;
39792;SDS011;26080;42.264;24.536;2022-11-11T16:55:58;2.85;;;1.75;;
39792;SDS011;26080;42.264;24.536;2022-11-11T16:58:26;3.25;;;1.33;;
39792;SDS011;26080;42.264;24.536;2022-11-11T17:00:58;4.35;;;2.88;;
39792;SDS011;26080;42.264;24.536;2022-11-11T17:03:33;2.75;;;1.83;;
39792;SDS011;26080;42.264;24.536;2022-11-11T17:06:00;5.88;;;3.28;;
39792;SDS011;26080;42.264;24.536;2022-11-11T17:11:06;1.60;;;1.50;;
39792;SDS011;26080;42.264;24.536;2022-11-11T17:13:33;2.63;;;1.83;;
39792;SDS011;26080;42.264;24.536;2022-11-11T17:16:08;2.67;;;1.63;;
39792;SDS011;26080;42.264;24.536;2022-11-11T17:18:37;3.88;;;3.47;;
39792;SDS011;26080;42.264;24.536;2022-11-11T17:21:03;5.22;;;3.50;;
39792;SDS011;26080;42.264;24.536;2022-11-11T17:23:29;6.18;;;3.63;;
39792;SDS011;26080;42.264;24.536;2022-11-11T17:25:55;8.18;;;5.25;;
39792;SDS011;26080;42.264;24.536;2022-11-11T17:28:24;5.05;;;3.80;;
39792;SDS011;26080;42.264;24.536;2022-11-11T17:30:50;2.65;;;2.42;;
39792;SDS011;26080;42.264;24.536;2022-11-11T17:33:16;20.42;;;7.28;;
39792;SDS011;26080;42.264;24.536;2022-11-11T17:35:50;4.38;;;2.78;;
39792;SDS011;26080;42.264;24.536;2022-11-11T17:38:17;11.23;;;2.47;;
39792;SDS011;26080;42.264;24.536;2022-11-11T17:40:43;6.78;;;2.67;;
39792;SDS011;26080;42.264;24.536;2022-11-11T17:43:12;5.35;;;2.67;;
39792;SDS011;26080;42.264;24.536;2022-11-11T17:45:38;17.13;;;5.30;;
39792;SDS011;26080;42.264;24.536;2022-11-11T17:48:03;3.63;;;3.33;;
39792;SDS011;26080;42.264;24.536;2022-11-11T17:50:29;5.70;;;3.13;;
39792;SDS011;26080;42.264;24.536;2022-11-11T17:52:55;3.17;;;2.83;;
39792;SDS011;26080;42.264;24.536;2022-11-11T17:55:21;5.65;;;3.60;;
39792;SDS011;26080;42.264;24.536;2022-11-11T17:57:47;6.75;;;3.47;;
39792;SDS011;26080;42.264;24.536;2022-11-11T18:00:12;4.72;;;2.33;;
39792;SDS011;26080;42.264;24.536;2022-11-11T18:02:39;5.15;;;3.85;;
39792;SDS011;26080;42.264;24.536;2022-11-11T18:05:04;4.25;;;2.13;;
39792;SDS011;26080;42.264;24.536;2022-11-11T18:07:31;4.15;;;3.78;;
39792;SDS011;26080;42.264;24.536;2022-11-11T18:09:56;5.72;;;4.32;;
39792;SDS011;26080;42.264;24.536;2022-11-11T18:12:22;5.97;;;4.78;;
39792;SDS011;26080;42.264;24.536;2022-11-11T18:14:48;14.68;;;9.30;;
39792;SDS011;26080;42.264;24.536;2022-11-11T18:17:13;3.83;;;2.72;;
39792;SDS011;26080;42.264;24.536;2022-11-11T18:19:39;2.30;;;2.10;;
39792;SDS011;26080;42.264;24.536;2022-11-11T18:22:04;8.18;;;3.03;;
39792;SDS011;26080;42.264;24.536;2022-11-11T18:24:30;4.30;;;3.35;;
39792;SDS011;26080;42.264;24.536;2022-11-11T18:26:55;3.00;;;2.65;;
39792;SDS011;26080;42.264;24.536;2022-11-11T18:29:21;9.32;;;4.25;;
39792;SDS011;26080;42.264;24.536;2022-11-11T18:31:46;7.18;;;2.65;;
39792;SDS011;26080;42.264;24.536;2022-11-11T18:34:12;8.98;;;3.45;;
39792;SDS011;26080;42.264;24.536;2022-11-11T18:36:37;10.15;;;6.55;;
39792;SDS011;26080;42.264;24.536;2022-11-11T18:39:03;6.45;;;3.70;;
39792;SDS011;26080;42.264;24.536;2022-11-11T18:41:29;5.72;;;2.88;;
39792;SDS011;26080;42.264;24.536;2022-11-11T18:43:54;8.30;;;4.60;;
39792;SDS011;26080;42.264;24.536;2022-11-11T18:46:24;3.47;;;1.92;;
39792;SDS011;26080;42.264;24.536;2022-11-11T18:48:57;4.25;;;2.60;;
39792;SDS011;26080;42.264;24.536;2022-11-11T18:51:23;11.98;;;5.32;;
39792;SDS011;26080;42.264;24.536;2022-11-11T18:53:50;5.93;;;4.43;;
39792;SDS011;26080;42.264;24.536;2022-11-11T18:56:17;3.03;;;2.58;;
39792;SDS011;26080;42.264;24.536;2022-11-11T18:58:48;12.93;;;5.10;;
39792;SDS011;26080;42.264;24.536;2022-11-11T19:01:16;9.75;;;5.97;;
39792;SDS011;26080;42.264;24.536;2022-11-11T19:03:53;7.45;;;5.57;;
39792;SDS011;26080;42.264;24.536;2022-11-11T19:06:21;10.95;;;4.45;;
39792;SDS011;26080;42.264;24.536;2022-11-11T19:08:53;4.53;;;3.90;;
39792;SDS011;26080;42.264;24.536;2022-11-11T19:11:26;7.28;;;4.13;;
39792;SDS011;26080;42.264;24.536;2022-11-11T19:13:54;8.52;;;5.57;;
39792;SDS011;26080;42.264;24.536;2022-11-11T19:16:21;5.90;;;3.58;;
39792;SDS011;26080;42.264;24.536;2022-11-11T19:18:52;13.68;;;5.75;;
39792;SDS011;26080;42.264;24.536;2022-11-11T19:21:19;5.20;;;3.70;;
39792;SDS011;26080;42.264;24.536;2022-11-11T19:23:50;5.40;;;3.65;;
39792;SDS011;26080;42.264;24.536;2022-11-11T19:26:18;7.35;;;2.28;;
39792;SDS011;26080;42.264;24.536;2022-11-11T19:28:45;5.53;;;3.75;;
39792;SDS011;26080;42.264;24.536;2022-11-11T19:31:14;3.13;;;2.08;;
39792;SDS011;26080;42.264;24.536;2022-11-11T19:33:42;5.82;;;3.10;;
39792;SDS011;26080;42.264;24.536;2022-11-11T19:36:13;7.78;;;3.53;;
39792;SDS011;26080;42.264;24.536;2022-11-11T19:38:43;5.72;;;4.65;;
39792;SDS011;26080;42.264;24.536;2022-11-11T19:41:10;5.43;;;4.13;;
39792;SDS011;26080;42.264;24.536;2022-11-11T19:43:38;10.00;;;3.22;;
39792;SDS011;26080;42.264;24.536;2022-11-11T19:46:04;8.88;;;2.75;;
39792;SDS011;26080;42.264;24.536;2022-11-11T19:48:31;5.53;;;3.17;;
39792;SDS011;26080;42.264;24.536;2022-11-11T19:51:01;9.45;;;4.30;;
39792;SDS011;26080;42.264;24.536;2022-11-11T19:53:31;7.50;;;3.50;;